Time;durP1;ratioP1;P1;durP2;ratioP2;P2;SDS_P1;SDS_P2;PMS_P1;PMS_P2;Temp;Humidity;BMP_temperature;BMP_pressure;BME280_temperature;BME280_humidity;BME280_pressure;Samples;Min_cycle;Max_cycle;Signal;HPM_P1;HPM_P2
2022/05/18 00:01:48;;;;;;;4.10;2.33;;;;;;;;;;5040069;28;20087;-49
2022/05/18 00:04:21;;;;;;;4.90;2.40;;;;;;;;;;5036337;28;20088;-46
2022/05/18 00:06:47;;;;;;;4.60;2.40;;;;;;;;;;5039924;28;20076;-45
2022/05/18 00:09:14;;;;;;;6.20;2.30;;;;;;;;;;5041292;28;20135;-49
2022/05/18 00:11:47;;;;;;;4.75;2.20;;;;;;;;;;5037101;28;20069;-52
2022/05/18 00:14:13;;;;;;;4.43;2.10;;;;;;;;;;5043865;28;20080;-46
2022/05/18 00:16:40;;;;;;;7.03;2.17;;;;;;;;;;5038752;28;20077;-51
2022/05/18 00:19:13;;;;;;;6.82;2.53;;;;;;;;;;5024855;28;20508;-52
2022/05/18 00:21:41;;;;;;;3.97;2.13;;;;;;;;;;5037801;28;20084;-53
2022/05/18 00:24:08;;;;;;;3.45;2.03;;;;;;;;;;5037066;28;20080;-52
2022/05/18 00:26:41;;;;;;;5.20;2.40;;;;;;;;;;5037108;28;20465;-50
2022/05/18 00:29:15;;;;;;;5.05;2.20;;;;;;;;;;5037329;28;20089;-52
2022/05/18 00:31:48;;;;;;;2.85;2.03;;;;;;;;;;5037367;28;20077;-51
2022/05/18 00:34:18;;;;;;;5.35;2.38;;;;;;;;;;5036654;28;20045;-51
2022/05/18 00:36:45;;;;;;;9.75;2.92;;;;;;;;;;5038644;28;20098;-49
2022/05/18 00:39:19;;;;;;;7.43;2.40;;;;;;;;;;5038273;28;20555;-48
2022/05/18 00:41:45;;;;;;;7.15;2.70;;;;;;;;;;5038629;28;20131;-49
2022/05/18 00:44:11;;;;;;;4.90;2.20;;;;;;;;;;5039634;28;20489;-45
2022/05/18 00:46:45;;;;;;;3.30;2.20;;;;;;;;;;5040254;28;20045;-46
2022/05/18 00:49:11;;;;;;;6.93;2.55;;;;;;;;;;5036438;28;20088;-45
2022/05/18 00:51:40;;;;;;;5.57;2.15;;;;;;;;;;5037928;28;20123;-45
2022/05/18 00:54:25;;;;;;;4.35;2.50;;;;;;;;;;5033940;28;20056;-48
2022/05/18 00:57:04;;;;;;;5.35;2.08;;;;;;;;;;5036920;28;20068;-49
2022/05/18 00:59:39;;;;;;;3.33;1.90;;;;;;;;;;5038657;28;20595;-49
2022/05/18 01:02:07;;;;;;;4.20;2.25;;;;;;;;;;5039034;28;20098;-50
2022/05/18 01:04:33;;;;;;;3.20;2.50;;;;;;;;;;5033221;28;20416;-51
2022/05/18 01:07:17;;;;;;;8.25;3.25;;;;;;;;;;5036893;28;20079;-45
2022/05/18 01:09:44;;;;;;;6.45;2.97;;;;;;;;;;5036728;28;20285;-51
2022/05/18 01:12:19;;;;;;;3.30;2.38;;;;;;;;;;5037590;28;20049;-51
2022/05/18 01:14:52;;;;;;;7.15;3.22;;;;;;;;;;5038060;28;20682;-56
2022/05/18 01:17:30;;;;;;;3.83;2.50;;;;;;;;;;5036806;28;20049;-52
2022/05/18 01:19:57;;;;;;;4.18;2.65;;;;;;;;;;5035669;28;20084;-53
2022/05/18 01:22:42;;;;;;;5.88;2.83;;;;;;;;;;5039877;28;20073;-51
2022/05/18 01:25:16;;;;;;;4.88;2.78;;;;;;;;;;5037204;28;20084;-49
2022/05/18 01:27:43;;;;;;;6.10;2.10;;;;;;;;;;5038195;28;20055;-49
2022/05/18 01:30:10;;;;;;;5.07;2.85;;;;;;;;;;5039663;28;20084;-50
2022/05/18 01:32:48;;;;;;;8.98;2.50;;;;;;;;;;5040996;28;20493;-50
2022/05/18 01:35:16;;;;;;;4.60;2.45;;;;;;;;;;5041187;28;20190;-49
2022/05/18 01:37:43;;;;;;;4.30;2.80;;;;;;;;;;5034947;28;20087;-51
2022/05/18 01:40:23;;;;;;;3.70;2.50;;;;;;;;;;5037219;28;20112;-48
2022/05/18 01:42:51;;;;;;;4.78;2.60;;;;;;;;;;5036923;28;20099;-52
2022/05/18 01:45:25;;;;;;;4.85;2.30;;;;;;;;;;5037966;28;20041;-52
2022/05/18 01:47:52;;;;;;;3.13;2.37;;;;;;;;;;5039146;28;20053;-50
2022/05/18 01:50:25;;;;;;;4.82;3.00;;;;;;;;;;5040044;28;20802;-50
2022/05/18 01:52:59;;;;;;;2.55;1.83;;;;;;;;;;5037999;28;20095;-47
2022/05/18 01:55:25;;;;;;;4.80;2.10;;;;;;;;;;5035652;28;20049;-51
2022/05/18 01:57:51;;;;;;;4.93;2.38;;;;;;;;;;5038640;28;20103;-48
2022/05/18 02:00:25;;;;;;;4.95;2.53;;;;;;;;;;5036538;28;20140;-51
2022/05/18 02:02:52;;;;;;;4.22;2.65;;;;;;;;;;5027381;28;20041;-52
2022/05/18 02:05:18;;;;;;;7.57;2.40;;;;;;;;;;5036388;28;20341;-48
2022/05/18 02:07:51;;;;;;;3.83;2.25;;;;;;;;;;5038369;28;20084;-50
2022/05/18 02:10:25;;;;;;;6.77;2.57;;;;;;;;;;5033674;28;20128;-56
2022/05/18 02:13:04;;;;;;;8.15;2.58;;;;;;;;;;5037839;28;20073;-48
2022/05/18 02:15:31;;;;;;;5.72;2.22;;;;;;;;;;5032859;28;20057;-49
2022/05/18 02:17:57;;;;;;;4.95;2.38;;;;;;;;;;5035755;28;20099;-45
2022/05/18 02:20:31;;;;;;;3.42;2.15;;;;;;;;;;5035607;28;20098;-49
2022/05/18 02:22:58;;;;;;;6.80;2.28;;;;;;;;;;5035884;28;20141;-44
2022/05/18 02:25:25;;;;;;;5.30;2.17;;;;;;;;;;5034958;28;20085;-44
2022/05/18 02:27:59;;;;;;;7.28;2.40;;;;;;;;;;5035473;28;20080;-54
2022/05/18 02:30:33;;;;;;;4.65;2.25;;;;;;;;;;5034065;28;20111;-52
2022/05/18 02:33:06;;;;;;;4.57;2.08;;;;;;;;;;5034244;28;20080;-46
2022/05/18 02:35:33;;;;;;;5.05;2.58;;;;;;;;;;5033326;28;20091;-48
2022/05/18 02:37:59;;;;;;;4.60;2.35;;;;;;;;;;5035213;28;20085;-46
2022/05/18 02:40:32;;;;;;;3.42;2.28;;;;;;;;;;5035554;28;20072;-46
2022/05/18 02:42:58;;;;;;;4.40;2.05;;;;;;;;;;5034793;28;20041;-48
2022/05/18 02:45:25;;;;;;;6.03;2.35;;;;;;;;;;5036706;28;20119;-50
2022/05/18 02:47:58;;;;;;;4.03;2.28;;;;;;;;;;5036875;28;20080;-48
2022/05/18 02:50:26;;;;;;;8.82;2.25;;;;;;;;;;5039106;28;20516;-49
2022/05/18 02:52:52;;;;;;;2.83;1.95;;;;;;;;;;5042107;28;20080;-49
2022/05/18 02:58:10;;;;;;;6.13;2.10;;;;;;;;;;5038825;28;20570;-51
2022/05/18 03:00:43;;;;;;;4.20;2.28;;;;;;;;;;5036874;28;20045;-49
2022/05/18 03:03:10;;;;;;;5.35;2.50;;;;;;;;;;5037604;28;20132;-49
2022/05/18 03:05:36;;;;;;;3.42;1.92;;;;;;;;;;5041244;28;20085;-50
2022/05/18 03:08:09;;;;;;;7.88;2.30;;;;;;;;;;5040405;28;20303;-50
2022/05/18 03:10:36;;;;;;;3.67;2.00;;;;;;;;;;5038921;28;20635;-54
2022/05/18 03:13:02;;;;;;;4.43;2.22;;;;;;;;;;5038798;28;20080;-47
2022/05/18 03:15:35;;;;;;;5.55;2.63;;;;;;;;;;5039638;28;20076;-48
2022/05/18 03:18:01;;;;;;;8.25;2.28;;;;;;;;;;5040944;28;20149;-49
2022/05/18 03:23:35;;;;;;;4.32;2.10;;;;;;;;;;5037057;28;20053;-52
2022/05/18 03:26:03;;;;;;;10.30;2.05;;;;;;;;;;5042009;28;20087;-53
2022/05/18 03:28:43;;;;;;;9.43;2.40;;;;;;;;;;5037115;28;20126;-48
2022/05/18 03:31:10;;;;;;;3.33;2.00;;;;;;;;;;5037797;28;20155;-48
2022/05/18 03:33:44;;;;;;;3.80;2.10;;;;;;;;;;5041759;28;20053;-52
2022/05/18 03:36:12;;;;;;;3.97;1.95;;;;;;;;;;5035079;28;20488;-48
2022/05/18 03:38:39;;;;;;;3.15;1.83;;;;;;;;;;5039289;28;20057;-51
2022/05/18 03:41:13;;;;;;;5.85;1.75;;;;;;;;;;5036973;28;20493;-49
2022/05/18 03:43:39;;;;;;;6.45;2.53;;;;;;;;;;5038075;28;20088;-50
2022/05/18 03:46:06;;;;;;;5.05;1.75;;;;;;;;;;5037794;28;20091;-50
2022/05/18 03:48:39;;;;;;;5.45;1.65;;;;;;;;;;5040446;28;20166;-54
2022/05/18 03:51:07;;;;;;;5.72;1.80;;;;;;;;;;5040552;28;20084;-54
2022/05/18 03:53:34;;;;;;;5.75;1.98;;;;;;;;;;5038504;28;20106;-53
2022/05/18 03:56:08;;;;;;;3.10;1.88;;;;;;;;;;5040894;28;20080;-53
2022/05/18 03:58:35;;;;;;;6.28;1.75;;;;;;;;;;5038454;28;20085;-54
2022/05/18 04:01:08;;;;;;;3.03;1.52;;;;;;;;;;5042017;28;20107;-55
2022/05/18 04:03:42;;;;;;;2.88;1.60;;;;;;;;;;5039825;28;20087;-49
2022/05/18 04:06:09;;;;;;;3.85;2.03;;;;;;;;;;5041265;28;20049;-53
2022/05/18 04:08:36;;;;;;;4.32;1.70;;;;;;;;;;5042757;28;20626;-53
2022/05/18 04:11:10;;;;;;;5.63;1.85;;;;;;;;;;5039795;28;20073;-46
2022/05/18 04:13:36;;;;;;;2.90;1.52;;;;;;;;;;5038453;28;20132;-53
2022/05/18 04:16:03;;;;;;;5.70;1.67;;;;;;;;;;5039324;28;20091;-49
2022/05/18 04:18:36;;;;;;;4.47;1.73;;;;;;;;;;5038433;28;20160;-48
2022/05/18 04:21:03;;;;;;;5.50;1.58;;;;;;;;;;5038393;28;20575;-50
2022/05/18 04:23:30;;;;;;;6.72;1.73;;;;;;;;;;5040136;28;20044;-56
2022/05/18 04:26:03;;;;;;;2.95;1.42;;;;;;;;;;5037727;28;20132;-50
2022/05/18 04:28:42;;;;;;;4.88;1.90;;;;;;;;;;5022658;28;20089;-51
2022/05/18 04:31:23;;;;;;;4.88;1.60;;;;;;;;;;5019226;28;20115;-50
2022/05/18 04:33:49;;;;;;;5.00;1.45;;;;;;;;;;5024445;28;20089;-52
2022/05/18 04:36:16;;;;;;;2.22;1.50;;;;;;;;;;5018616;28;20390;-48
2022/05/18 04:38:49;;;;;;;4.05;1.48;;;;;;;;;;5019192;28;20092;-53
2022/05/18 04:41:16;;;;;;;3.05;1.65;;;;;;;;;;5018327;28;20053;-48
2022/05/18 04:43:42;;;;;;;5.63;1.70;;;;;;;;;;5019393;28;20112;-54
2022/05/18 04:46:15;;;;;;;5.95;1.70;;;;;;;;;;5018761;28;20119;-46
2022/05/18 04:48:42;;;;;;;4.22;1.45;;;;;;;;;;5017802;28;20516;-48
2022/05/18 04:51:08;;;;;;;4.35;1.50;;;;;;;;;;5019654;28;20729;-52
2022/05/18 04:53:41;;;;;;;6.03;1.80;;;;;;;;;;5015212;28;20089;-51
2022/05/18 04:56:09;;;;;;;4.65;1.48;;;;;;;;;;5019615;28;20108;-50
2022/05/18 04:58:36;;;;;;;5.03;1.40;;;;;;;;;;5020189;28;20368;-50
2022/05/18 05:01:09;;;;;;;5.22;1.60;;;;;;;;;;5021005;28;20508;-51
2022/05/18 05:03:36;;;;;;;3.85;1.67;;;;;;;;;;5018779;28;20057;-55
2022/05/18 05:06:04;;;;;;;3.55;1.80;;;;;;;;;;5021528;28;20053;-52
2022/05/18 05:08:40;;;;;;;4.72;1.70;;;;;;;;;;5015883;28;20084;-53
2022/05/18 05:11:07;;;;;;;2.85;1.70;;;;;;;;;;5018167;28;20080;-54
2022/05/18 05:13:34;;;;;;;3.13;1.52;;;;;;;;;;5015280;28;20077;-53
2022/05/18 05:16:08;;;;;;;3.97;1.77;;;;;;;;;;5017111;28;20084;-53
2022/05/18 05:18:35;;;;;;;3.60;1.63;;;;;;;;;;5016985;28;20145;-54
2022/05/18 05:21:02;;;;;;;3.15;1.73;;;;;;;;;;5017308;28;20045;-49
2022/05/18 05:23:35;;;;;;;3.55;1.70;;;;;;;;;;5012309;28;20081;-54
2022/05/18 05:26:02;;;;;;;4.75;1.83;;;;;;;;;;5016354;28;20469;-54
2022/05/18 05:28:29;;;;;;;4.57;1.70;;;;;;;;;;5023344;28;20045;-52
2022/05/18 05:31:12;;;;;;;4.05;1.65;;;;;;;;;;5037364;28;20061;-53
2022/05/18 05:33:40;;;;;;;4.72;1.58;;;;;;;;;;5039473;28;20045;-53
2022/05/18 05:36:14;;;;;;;2.40;1.50;;;;;;;;;;5039916;28;20088;-55
2022/05/18 05:38:41;;;;;;;3.55;1.55;;;;;;;;;;5038648;28;20567;-48
2022/05/18 05:41:07;;;;;;;4.18;1.80;;;;;;;;;;5037661;28;20040;-51
2022/05/18 05:43:41;;;;;;;4.30;2.08;;;;;;;;;;5039070;28;20053;-47
2022/05/18 05:46:10;;;;;;;5.40;1.80;;;;;;;;;;5037794;28;20053;-51
2022/05/18 05:48:36;;;;;;;8.73;1.70;;;;;;;;;;5037692;28;20404;-48
2022/05/18 05:51:13;;;;;;;5.60;1.75;;;;;;;;;;5037871;28;20080;-51
2022/05/18 05:53:40;;;;;;;3.58;1.70;;;;;;;;;;5038029;28;20057;-53
2022/05/18 05:56:07;;;;;;;2.97;1.55;;;;;;;;;;5033864;28;20077;-48
2022/05/18 05:58:41;;;;;;;3.85;1.67;;;;;;;;;;5038630;28;20085;-48
2022/05/18 06:01:08;;;;;;;3.75;1.42;;;;;;;;;;5038843;28;20068;-53
2022/05/18 06:03:35;;;;;;;3.97;2.03;;;;;;;;;;5038916;28;20089;-54
2022/05/18 06:06:10;;;;;;;3.13;1.70;;;;;;;;;;5038190;28;20081;-55
2022/05/18 06:08:37;;;;;;;5.35;2.03;;;;;;;;;;5038013;28;20085;-56
2022/05/18 06:11:03;;;;;;;5.60;2.05;;;;;;;;;;5039085;28;20076;-56
2022/05/18 06:13:37;;;;;;;3.95;1.42;;;;;;;;;;5038942;28;20084;-55
2022/05/18 06:16:04;;;;;;;3.03;1.67;;;;;;;;;;5038047;28;20060;-55
2022/05/18 06:18:30;;;;;;;6.10;1.83;;;;;;;;;;5040122;28;20446;-50
2022/05/18 06:21:05;;;;;;;5.82;1.63;;;;;;;;;;5035933;28;20084;-50
2022/05/18 06:23:31;;;;;;;4.00;2.00;;;;;;;;;;5036944;28;20072;-51
2022/05/18 06:26:01;;;;;;;3.55;1.80;;;;;;;;;;5038124;28;20535;-52
2022/05/18 06:28:36;;;;;;;4.88;1.67;;;;;;;;;;5037304;28;20439;-49
2022/05/18 06:31:09;;;;;;;2.88;1.52;;;;;;;;;;5036687;28;20071;-53
2022/05/18 06:33:43;;;;;;;2.92;1.60;;;;;;;;;;5038832;28;20416;-47
2022/05/18 06:36:10;;;;;;;2.90;1.65;;;;;;;;;;5036443;28;20088;-48
2022/05/18 06:38:36;;;;;;;2.63;1.70;;;;;;;;;;5034409;28;20077;-52
2022/05/18 06:41:22;;;;;;;4.47;1.90;;;;;;;;;;5036510;28;20486;-54
2022/05/18 06:43:56;;;;;;;3.47;1.80;;;;;;;;;;5036727;28;20049;-55
2022/05/18 06:46:35;;;;;;;3.22;1.88;;;;;;;;;;5036030;28;20049;-52
2022/05/18 06:49:03;;;;;;;4.93;1.60;;;;;;;;;;5035268;28;20134;-50
2022/05/18 06:51:31;;;;;;;3.05;1.60;;;;;;;;;;5021596;28;20077;-50
2022/05/18 06:54:05;;;;;;;5.70;1.50;;;;;;;;;;5037080;28;20103;-56
2022/05/18 06:56:34;;;;;;;3.22;1.30;;;;;;;;;;5035528;28;20084;-50
2022/05/18 06:59:00;;;;;;;4.45;2.00;;;;;;;;;;5039833;28;20568;-57
2022/05/18 07:01:34;;;;;;;3.47;1.80;;;;;;;;;;5041529;28;20897;-55
2022/05/18 07:04:00;;;;;;;5.28;1.73;;;;;;;;;;5035720;28;20046;-57
2022/05/18 07:06:37;;;;;;;6.35;1.50;;;;;;;;;;5039307;28;20107;-55
2022/05/18 07:09:11;;;;;;;2.60;1.70;;;;;;;;;;5037367;28;20080;-54
2022/05/18 07:11:46;;;;;;;4.10;1.73;;;;;;;;;;5034849;28;20531;-56
2022/05/18 07:14:13;;;;;;;3.70;1.42;;;;;;;;;;5037267;28;20691;-54
2022/05/18 07:16:43;;;;;;;2.25;1.38;;;;;;;;;;5036313;28;20098;-58
2022/05/18 07:19:17;;;;;;;3.10;1.88;;;;;;;;;;5036047;28;20076;-54
2022/05/18 07:21:44;;;;;;;3.03;1.85;;;;;;;;;;5037243;28;20069;-53
2022/05/18 07:24:11;;;;;;;3.05;1.50;;;;;;;;;;5039441;28;20468;-55
2022/05/18 07:26:44;;;;;;;2.45;1.00;;;;;;;;;;5038295;28;20041;-50
2022/05/18 07:29:17;;;;;;;3.17;1.70;;;;;;;;;;5036264;28;20072;-50
2022/05/18 07:32:12;;;;;;;3.83;1.70;;;;;;;;;;5040098;28;20045;-50
2022/05/18 07:34:40;;;;;;;1.63;1.25;;;;;;;;;;5037355;28;20081;-52
2022/05/18 07:37:14;;;;;;;3.72;1.70;;;;;;;;;;5041579;28;20099;-50
2022/05/18 07:39:40;;;;;;;5.03;1.60;;;;;;;;;;5040741;28;20055;-54
2022/05/18 07:42:07;;;;;;;2.93;1.80;;;;;;;;;;5041183;28;20081;-52
2022/05/18 07:44:40;;;;;;;4.82;1.30;;;;;;;;;;5041576;28;20056;-48
2022/05/18 07:47:07;;;;;;;6.07;1.50;;;;;;;;;;5039708;28;20073;-49
2022/05/18 07:49:35;;;;;;;6.07;1.73;;;;;;;;;;5037484;28;20057;-51
2022/05/18 07:52:08;;;;;;;5.72;1.70;;;;;;;;;;5038752;28;20049;-55
2022/05/18 07:54:35;;;;;;;2.95;1.17;;;;;;;;;;4949127;28;20421;-58
2022/05/18 07:57:05;;;;;;;5.53;1.70;;;;;;;;;;4997260;28;20123;-45
2022/05/18 07:59:38;;;;;;;2.75;1.40;;;;;;;;;;5037772;28;20148;-46
2022/05/18 08:02:06;;;;;;;3.45;1.60;;;;;;;;;;5037107;28;20046;-48
2022/05/18 08:04:34;;;;;;;3.47;1.55;;;;;;;;;;5036879;28;20049;-48
2022/05/18 08:07:07;;;;;;;10.82;1.38;;;;;;;;;;5040896;28;20041;-52
2022/05/18 08:15:05;;;;;;;2.55;1.13;;;;;;;;;;5040593;28;20099;-45
2022/05/18 08:15:12;;;;;;;2.80;1.50;;;;;;;;;;5040166;28;20069;-53
2022/05/18 08:17:45;;;;;;;1.77;1.05;;;;;;;;;;5039141;28;20087;-50
2022/05/18 08:20:13;;;;;;;3.43;1.40;;;;;;;;;;5039219;28;20568;-52
2022/05/18 08:22:39;;;;;;;;;;;;;;;;;;5045343;28;20801;-53
2022/05/18 08:25:13;;;;;;;3.10;1.30;;;;;;;;;;5038159;28;20371;-54
2022/05/18 08:27:41;;;;;;;2.00;1.25;;;;;;;;;;5038870;28;20080;-54
2022/05/18 08:30:08;;;;;;;3.75;1.23;;;;;;;;;;5043837;28;20080;-49
2022/05/18 08:32:48;;;;;;;2.10;1.35;;;;;;;;;;5040657;28;20053;-54
2022/05/18 08:35:14;;;;;;;3.58;1.35;;;;;;;;;;5039123;28;20080;-51
2022/05/18 08:37:41;;;;;;;2.15;1.25;;;;;;;;;;5041175;28;20096;-50
2022/05/18 08:40:24;;;;;;;4.72;1.48;;;;;;;;;;5044036;28;20131;-50
2022/05/18 08:42:51;;;;;;;2.13;1.27;;;;;;;;;;5039470;28;20588;-53
2022/05/18 08:45:29;;;;;;;6.22;1.50;;;;;;;;;;5041066;28;20053;-53
2022/05/18 08:48:06;;;;;;;2.50;1.25;;;;;;;;;;5039026;28;20041;-54
2022/05/18 08:50:39;;;;;;;3.47;1.20;;;;;;;;;;5038440;28;20048;-57
2022/05/18 08:53:16;;;;;;;5.13;1.30;;;;;;;;;;5040213;28;20056;-54
2022/05/18 08:56:03;;;;;;;6.75;1.30;;;;;;;;;;5038025;28;20053;-50
2022/05/18 08:58:30;;;;;;;5.03;1.60;;;;;;;;;;5033972;28;20463;-55
2022/05/18 09:01:06;;;;;;;7.32;1.42;;;;;;;;;;5040155;28;20088;-55
2022/05/18 09:03:44;;;;;;;3.00;1.50;;;;;;;;;;5038289;28;20049;-52
2022/05/18 09:06:30;;;;;;;3.03;1.20;;;;;;;;;;5038690;28;20108;-54
2022/05/18 09:12:01;;;;;;;1.75;1.20;;;;;;;;;;5041606;28;20048;-58
2022/05/18 09:14:37;;;;;;;2.75;1.30;;;;;;;;;;5022942;28;20522;-55
2022/05/18 09:17:10;;;;;;;3.22;1.42;;;;;;;;;;5037006;28;20103;-57
2022/05/18 09:19:56;;;;;;;2.97;1.30;;;;;;;;;;5034076;28;20049;-55
2022/05/18 09:22:40;;;;;;;2.80;1.27;;;;;;;;;;5042239;28;20084;-57
2022/05/18 09:25:12;;;;;;;2.78;1.10;;;;;;;;;;5041495;28;20060;-56
2022/05/18 09:28:04;;;;;;;5.43;1.63;;;;;;;;;;5038347;28;20474;-46
2022/05/18 09:30:57;;;;;;;2.33;1.10;;;;;;;;;;5031247;28;20590;-56
2022/05/18 09:33:53;;;;;;;2.75;1.30;;;;;;;;;;5014892;28;20053;-58
2022/05/18 09:36:20;;;;;;;2.15;1.25;;;;;;;;;;4979415;28;20567;-57
2022/05/18 09:39:00;;;;;;;3.22;0.88;;;;;;;;;;5021011;28;20127;-58
2022/05/18 09:41:28;;;;;;;2.47;1.27;;;;;;;;;;5016153;28;20104;-56
2022/05/18 09:44:06;;;;;;;2.28;1.13;;;;;;;;;;5019550;28;20505;-57
2022/05/18 09:46:33;;;;;;;1.50;1.20;;;;;;;;;;5000877;28;20045;-49
2022/05/18 09:49:19;;;;;;;1.75;1.27;;;;;;;;;;5020577;28;20156;-58
2022/05/18 09:51:53;;;;;;;2.20;1.20;;;;;;;;;;5015412;28;20045;-48
2022/05/18 09:54:23;;;;;;;3.00;1.48;;;;;;;;;;5019245;28;20517;-48
2022/05/18 09:56:55;;;;;;;2.13;1.27;;;;;;;;;;5016915;28;20464;-53
2022/05/18 09:59:30;;;;;;;6.35;1.60;;;;;;;;;;5015548;28;20127;-49
2022/05/18 10:07:47;;;;;;;3.22;1.23;;;;;;;;;;5016269;28;20046;-51
2022/05/18 10:10:40;;;;;;;5.50;1.40;;;;;;;;;;5018872;28;20069;-52
2022/05/18 10:13:14;;;;;;;4.35;1.90;;;;;;;;;;5016794;28;20064;-51
2022/05/18 10:16:10;;;;;;;3.65;1.30;;;;;;;;;;5017820;28;20136;-48
2022/05/18 10:18:53;;;;;;;6.28;1.15;;;;;;;;;;5018509;28;20344;-53
2022/05/18 10:21:35;;;;;;;2.78;1.40;;;;;;;;;;5019833;28;20080;-53
2022/05/18 10:24:13;;;;;;;2.58;1.42;;;;;;;;;;5016905;28;20058;-55
2022/05/18 10:27:02;;;;;;;6.05;1.23;;;;;;;;;;5019552;28;20111;-52
2022/05/18 10:29:32;;;;;;;2.22;1.00;;;;;;;;;;5017315;28;20073;-52
2022/05/18 10:32:14;;;;;;;3.40;1.30;;;;;;;;;;5037446;28;20042;-50
2022/05/18 10:34:42;;;;;;;3.40;1.40;;;;;;;;;;5038620;28;20056;-53
2022/05/18 10:37:27;;;;;;;1.55;1.15;;;;;;;;;;5038855;28;20072;-50
2022/05/18 10:39:54;;;;;;;;;;;;;;;;;;5035889;28;20099;-53
2022/05/18 10:42:29;;;;;;;2.15;1.20;;;;;;;;;;5035763;28;19991;-51
2022/05/18 10:44:58;;;;;;;1.98;1.23;;;;;;;;;;5039583;28;20480;-46
2022/05/18 10:47:26;;;;;;;3.10;1.20;;;;;;;;;;5038986;28;20045;-58
2022/05/18 10:50:21;;;;;;;3.47;1.33;;;;;;;;;;5035875;28;20073;-59
2022/05/18 10:52:48;;;;;;;5.17;1.10;;;;;;;;;;5039394;28;20048;-59
2022/05/18 10:55:23;;;;;;;2.95;1.55;;;;;;;;;;5039013;28;20053;-59
2022/05/18 10:58:03;;;;;;;2.10;1.05;;;;;;;;;;5038399;28;20512;-58
2022/05/18 11:00:39;;;;;;;7.70;1.50;;;;;;;;;;5030714;28;20464;-59
2022/05/18 11:03:22;;;;;;;1.88;1.10;;;;;;;;;;5037762;28;20681;-54
2022/05/18 11:05:58;;;;;;;5.10;1.35;;;;;;;;;;5036720;28;20096;-54
2022/05/18 11:08:28;;;;;;;2.58;1.10;;;;;;;;;;5037801;28;20045;-53
2022/05/18 11:11:01;;;;;;;4.22;1.45;;;;;;;;;;5039201;28;20057;-54
2022/05/18 11:13:54;;;;;;;4.68;1.45;;;;;;;;;;5040619;28;20107;-52
2022/05/18 11:16:43;;;;;;;2.72;1.23;;;;;;;;;;5039803;28;20064;-49
2022/05/18 11:19:35;;;;;;;1.30;0.95;;;;;;;;;;5007762;28;20536;-51
2022/05/18 11:22:08;;;;;;;1.80;1.35;;;;;;;;;;5037988;28;20496;-51
2022/05/18 11:25:08;;;;;;;9.40;1.38;;;;;;;;;;5038860;28;20124;-55
2022/05/18 11:28:12;;;;;;;3.20;1.23;;;;;;;;;;5022142;28;20057;-54
2022/05/18 11:31:20;;;;;;;5.85;1.20;;;;;;;;;;5035579;28;20060;-52
2022/05/18 11:33:49;;;;;;;5.60;1.23;;;;;;;;;;5036636;28;20061;-52
2022/05/18 11:36:41;;;;;;;3.25;1.10;;;;;;;;;;5040499;28;20049;-52
2022/05/18 11:39:20;;;;;;;4.35;1.17;;;;;;;;;;5038325;28;20131;-53
2022/05/18 11:42:05;;;;;;;5.25;1.40;;;;;;;;;;5038277;28;20416;-60
2022/05/18 11:44:43;;;;;;;5.25;1.08;;;;;;;;;;5041721;28;20077;-51
2022/05/18 11:47:35;;;;;;;2.45;1.27;;;;;;;;;;5038574;28;20120;-52
2022/05/18 11:50:22;;;;;;;5.10;1.52;;;;;;;;;;5040679;28;20041;-50
2022/05/18 11:53:10;;;;;;;2.03;1.20;;;;;;;;;;5039544;28;20130;-54
2022/05/18 11:55:50;;;;;;;3.67;1.23;;;;;;;;;;5041806;28;20092;-50
2022/05/18 11:58:52;;;;;;;4.03;1.25;;;;;;;;;;5043353;28;20513;-54
2022/05/18 12:01:30;;;;;;;1.70;1.30;;;;;;;;;;5039820;28;20131;-58
2022/05/18 12:04:18;;;;;;;4.75;1.33;;;;;;;;;;5039598;28;20649;-49
2022/05/18 12:07:03;;;;;;;3.03;1.15;;;;;;;;;;5040413;28;20057;-53
2022/05/18 12:09:58;;;;;;;2.28;1.33;;;;;;;;;;5040136;28;20061;-55
2022/05/18 12:12:47;;;;;;;1.85;1.10;;;;;;;;;;5038417;28;20077;-53
2022/05/18 12:15:34;;;;;;;1.33;1.00;;;;;;;;;;5034931;28;20100;-55
2022/05/18 12:18:07;;;;;;;3.20;1.30;;;;;;;;;;5038263;28;20049;-58
2022/05/18 12:20:59;;;;;;;1.95;1.30;;;;;;;;;;5040909;28;20582;-49
2022/05/18 12:23:29;;;;;;;1.88;1.23;;;;;;;;;;5039602;28;20080;-53
2022/05/18 12:26:02;;;;;;;2.78;1.20;;;;;;;;;;5038429;28;20134;-52
2022/05/18 12:28:29;;;;;;;3.45;1.27;;;;;;;;;;5039118;28;20463;-52
2022/05/18 12:30:57;;;;;;;3.50;1.48;;;;;;;;;;5040677;28;20083;-50
2022/05/18 12:33:34;;;;;;;1.60;1.35;;;;;;;;;;5039280;28;20059;-54
2022/05/18 12:36:03;;;;;;;1.88;1.10;;;;;;;;;;5042267;28;20111;-51
2022/05/18 12:38:35;;;;;;;1.85;1.15;;;;;;;;;;5037178;28;20453;-53
2022/05/18 12:41:10;;;;;;;1.50;1.20;;;;;;;;;;5041588;28;20076;-59
2022/05/18 12:43:49;;;;;;;2.42;1.50;;;;;;;;;;5041087;28;20102;-58
2022/05/18 12:46:35;;;;;;;2.42;1.00;;;;;;;;;;5039287;28;20072;-59
2022/05/18 12:49:10;;;;;;;4.55;1.25;;;;;;;;;;5037137;28;20037;-59
2022/05/18 12:51:46;;;;;;;1.98;1.33;;;;;;;;;;5040373;28;20085;-58
2022/05/18 12:54:33;;;;;;;4.88;1.42;;;;;;;;;;5037244;28;20081;-58
2022/05/18 12:57:08;;;;;;;5.78;1.88;;;;;;;;;;5039349;28;20136;-59
2022/05/18 12:59:45;;;;;;;3.03;1.27;;;;;;;;;;5038330;28;20081;-55
2022/05/18 13:02:32;;;;;;;3.38;1.48;;;;;;;;;;5036971;28;20083;-49
2022/05/18 13:05:00;;;;;;;1.98;1.40;;;;;;;;;;5039264;28;20474;-53
2022/05/18 13:07:35;;;;;;;2.65;1.33;;;;;;;;;;5037754;28;20119;-53
2022/05/18 13:10:16;;;;;;;2.15;1.35;;;;;;;;;;5038364;28;20504;-54
2022/05/18 13:12:56;;;;;;;2.40;1.50;;;;;;;;;;5037270;28;20080;-53
2022/05/18 13:15:35;;;;;;;3.10;1.25;;;;;;;;;;5039282;28;20054;-54
2022/05/18 13:18:11;;;;;;;2.20;1.42;;;;;;;;;;5038226;28;20077;-49
2022/05/18 13:20:46;;;;;;;2.83;1.48;;;;;;;;;;5038413;28;20092;-58
2022/05/18 13:23:23;;;;;;;2.95;1.27;;;;;;;;;;5040704;28;20087;-58
2022/05/18 13:25:52;;;;;;;4.53;1.70;;;;;;;;;;5042017;28;20101;-59
2022/05/18 13:28:20;;;;;;;3.88;1.60;;;;;;;;;;5037920;28;20143;-58
2022/05/18 13:31:11;;;;;;;2.40;1.30;;;;;;;;;;5037703;28;20064;-59
2022/05/18 13:34:02;;;;;;;1.77;1.00;;;;;;;;;;5037996;28;20647;-58
2022/05/18 13:36:38;;;;;;;2.85;1.25;;;;;;;;;;5037746;28;20064;-53
2022/05/18 13:39:18;;;;;;;4.43;1.20;;;;;;;;;;5039486;28;20053;-53
2022/05/18 13:41:51;;;;;;;3.03;1.80;;;;;;;;;;5038408;28;20045;-47
2022/05/18 13:44:21;;;;;;;1.35;1.05;;;;;;;;;;5039225;28;20511;-53
2022/05/18 13:46:48;;;;;;;5.78;1.42;;;;;;;;;;5035981;28;20134;-50
2022/05/18 13:49:24;;;;;;;3.67;1.10;;;;;;;;;;5035512;28;20045;-48
2022/05/18 13:51:53;;;;;;;3.38;1.45;;;;;;;;;;5037338;28;20563;-51
2022/05/18 13:54:25;;;;;;;5.22;1.20;;;;;;;;;;5036906;28;20083;-50
2022/05/18 13:57:00;;;;;;;2.65;1.35;;;;;;;;;;5034077;28;20098;-58
2022/05/18 13:59:27;;;;;;;3.03;1.23;;;;;;;;;;5039290;28;20079;-54
2022/05/18 14:01:55;;;;;;;2.53;1.08;;;;;;;;;;5042197;28;20520;-54
2022/05/18 14:04:40;;;;;;;4.35;1.27;;;;;;;;;;5039187;28;20508;-52
2022/05/18 14:07:24;;;;;;;4.00;1.50;;;;;;;;;;5029290;28;20057;-51
2022/05/18 14:10:19;;;;;;;2.38;1.40;;;;;;;;;;5039122;28;20059;-52
2022/05/18 14:12:46;;;;;;;2.60;1.27;;;;;;;;;;5039169;28;20052;-52
2022/05/18 14:15:20;;;;;;;4.22;1.27;;;;;;;;;;5040074;28;20084;-59
2022/05/18 14:17:49;;;;;;;3.92;1.40;;;;;;;;;;5037139;28;20476;-57
2022/05/18 14:20:31;;;;;;;2.50;1.15;;;;;;;;;;5039760;28;20485;-57
2022/05/18 14:23:24;;;;;;;5.20;1.23;;;;;;;;;;5033978;28;20053;-55
2022/05/18 14:25:54;;;;;;;3.85;1.17;;;;;;;;;;5038744;28;20111;-57
2022/05/18 14:28:29;;;;;;;3.00;1.25;;;;;;;;;;5038467;28;20099;-57
2022/05/18 14:31:03;;;;;;;2.03;1.10;;;;;;;;;;5036379;28;20049;-54
2022/05/18 14:33:45;;;;;;;3.60;1.13;;;;;;;;;;5036310;28;20053;-50
2022/05/18 14:36:20;;;;;;;4.03;1.33;;;;;;;;;;5037902;28;20535;-52
2022/05/18 14:38:56;;;;;;;3.97;1.23;;;;;;;;;;5037712;28;20072;-52
2022/05/18 14:41:33;;;;;;;4.22;1.15;;;;;;;;;;5036725;28;20049;-51
2022/05/18 14:44:15;;;;;;;5.25;1.27;;;;;;;;;;5035186;28;20041;-48
2022/05/18 14:46:47;;;;;;;7.27;1.37;;;;;;;;;;5036555;28;20045;-51
2022/05/18 14:49:26;;;;;;;1.77;1.00;;;;;;;;;;5038131;28;20045;-52
2022/05/18 14:52:01;;;;;;;2.17;1.30;;;;;;;;;;5035232;28;20099;-54
2022/05/18 14:54:37;;;;;;;2.65;1.20;;;;;;;;;;5039270;28;20080;-46
2022/05/18 14:57:04;;;;;;;3.83;1.17;;;;;;;;;;5039194;28;20072;-52
2022/05/18 14:59:36;;;;;;;2.93;1.20;;;;;;;;;;5038836;28;20521;-48
2022/05/18 15:02:10;;;;;;;2.13;1.27;;;;;;;;;;5034891;28;20527;-51
2022/05/18 15:04:55;;;;;;;3.03;1.25;;;;;;;;;;5035772;28;20112;-53
2022/05/18 15:07:30;;;;;;;3.97;1.52;;;;;;;;;;5037862;28;20053;-49
2022/05/18 15:10:01;;;;;;;2.72;1.15;;;;;;;;;;5036878;28;20134;-57
2022/05/18 15:12:31;;;;;;;5.82;1.25;;;;;;;;;;5036121;28;20091;-51
2022/05/18 15:15:17;;;;;;;3.92;1.30;;;;;;;;;;5035437;28;20052;-57
2022/05/18 15:17:45;;;;;;;3.47;1.27;;;;;;;;;;5037942;28;20049;-58
2022/05/18 15:20:19;;;;;;;4.05;1.63;;;;;;;;;;5035856;28;20065;-58
2022/05/18 15:22:56;;;;;;;3.25;1.30;;;;;;;;;;5038494;28;20081;-56
2022/05/18 15:25:38;;;;;;;8.43;1.75;;;;;;;;;;5033595;28;20044;-57
2022/05/18 15:28:14;;;;;;;3.97;1.70;;;;;;;;;;5037025;28;20141;-58
2022/05/18 15:31:02;;;;;;;6.07;1.85;;;;;;;;;;5039041;28;20560;-57
2022/05/18 15:33:37;;;;;;;5.72;1.52;;;;;;;;;;5017030;28;20485;-58
2022/05/18 15:36:09;;;;;;;10.32;1.77;;;;;;;;;;5036688;28;20416;-55
2022/05/18 15:38:36;;;;;;;3.75;1.85;;;;;;;;;;5035694;28;20456;-57
2022/05/18 15:41:02;;;;;;;5.18;1.77;;;;;;;;;;5037139;28;20042;-54